sensor_id;sensor_type;location;lat;lon;timestamp;P1;durP1;ratioP1;P2;durP2;ratioP2
33413;SDS011;60055;41.884;12.534;2022-08-07T00:01:03;15.60;;;3.85;;
33413;SDS011;60055;41.884;12.534;2022-08-07T00:03:30;12.88;;;3.58;;
33413;SDS011;60055;41.884;12.534;2022-08-07T00:05:55;11.23;;;3.42;;
33413;SDS011;60055;41.884;12.534;2022-08-07T00:08:21;9.95;;;3.40;;
33413;SDS011;60055;41.884;12.534;2022-08-07T00:10:48;11.32;;;3.95;;
33413;SDS011;60055;41.884;12.534;2022-08-07T00:13:14;13.10;;;3.40;;
33413;SDS011;60055;41.884;12.534;2022-08-07T00:15:40;10.45;;;3.00;;
33413;SDS011;60055;41.884;12.534;2022-08-07T00:18:06;11.50;;;3.38;;
33413;SDS011;60055;41.884;12.534;2022-08-07T00:20:33;14.68;;;3.40;;
33413;SDS011;60055;41.884;12.534;2022-08-07T00:23:03;12.85;;;3.30;;
33413;SDS011;60055;41.884;12.534;2022-08-07T00:25:32;10.00;;;3.20;;
33413;SDS011;60055;41.884;12.534;2022-08-07T00:27:58;10.73;;;3.28;;
33413;SDS011;60055;41.884;12.534;2022-08-07T00:30:24;9.88;;;3.08;;
33413;SDS011;60055;41.884;12.534;2022-08-07T00:32:50;11.80;;;3.30;;
33413;SDS011;60055;41.884;12.534;2022-08-07T00:35:17;10.50;;;2.95;;
33413;SDS011;60055;41.884;12.534;2022-08-07T00:37:43;9.60;;;3.15;;
33413;SDS011;60055;41.884;12.534;2022-08-07T00:40:09;9.07;;;2.90;;
33413;SDS011;60055;41.884;12.534;2022-08-07T00:42:36;17.23;;;3.65;;
33413;SDS011;60055;41.884;12.534;2022-08-07T00:45:02;8.57;;;3.08;;
33413;SDS011;60055;41.884;12.534;2022-08-07T00:47:29;10.27;;;3.20;;
33413;SDS011;60055;41.884;12.534;2022-08-07T00:49:55;10.90;;;3.13;;
33413;SDS011;60055;41.884;12.534;2022-08-07T00:52:21;12.02;;;3.10;;
33413;SDS011;60055;41.884;12.534;2022-08-07T00:54:47;8.77;;;2.95;;
33413;SDS011;60055;41.884;12.534;2022-08-07T00:57:13;9.35;;;3.28;;
33413;SDS011;60055;41.884;12.534;2022-08-07T00:59:40;8.25;;;3.20;;
33413;SDS011;60055;41.884;12.534;2022-08-07T01:02:06;9.50;;;3.13;;
33413;SDS011;60055;41.884;12.534;2022-08-07T01:04:32;9.43;;;3.00;;
33413;SDS011;60055;41.884;12.534;2022-08-07T01:06:58;10.38;;;2.88;;
33413;SDS011;60055;41.884;12.534;2022-08-07T01:09:25;10.10;;;3.05;;
33413;SDS011;60055;41.884;12.534;2022-08-07T01:11:51;10.70;;;3.03;;
33413;SDS011;60055;41.884;12.534;2022-08-07T01:14:18;13.25;;;3.00;;
33413;SDS011;60055;41.884;12.534;2022-08-07T01:16:44;6.75;;;2.72;;
33413;SDS011;60055;41.884;12.534;2022-08-07T01:19:10;11.15;;;2.97;;
33413;SDS011;60055;41.884;12.534;2022-08-07T01:21:36;8.40;;;2.90;;
33413;SDS011;60055;41.884;12.534;2022-08-07T01:24:03;10.13;;;2.70;;
33413;SDS011;60055;41.884;12.534;2022-08-07T01:26:29;8.98;;;2.75;;
33413;SDS011;60055;41.884;12.534;2022-08-07T01:28:55;10.82;;;2.78;;
33413;SDS011;60055;41.884;12.534;2022-08-07T01:31:21;9.73;;;2.80;;
33413;SDS011;60055;41.884;12.534;2022-08-07T01:33:52;8.77;;;2.78;;
33413;SDS011;60055;41.884;12.534;2022-08-07T01:36:18;9.32;;;2.47;;
33413;SDS011;60055;41.884;12.534;2022-08-07T01:38:44;7.75;;;2.70;;
33413;SDS011;60055;41.884;12.534;2022-08-07T01:41:09;12.23;;;3.05;;
33413;SDS011;60055;41.884;12.534;2022-08-07T01:43:36;10.95;;;2.83;;
33413;SDS011;60055;41.884;12.534;2022-08-07T01:46:02;7.35;;;2.60;;
33413;SDS011;60055;41.884;12.534;2022-08-07T01:48:29;8.68;;;2.60;;
33413;SDS011;60055;41.884;12.534;2022-08-07T01:51:01;9.25;;;2.85;;
33413;SDS011;60055;41.884;12.534;2022-08-07T01:53:28;10.32;;;3.05;;
33413;SDS011;60055;41.884;12.534;2022-08-07T01:56:00;12.98;;;3.03;;
33413;SDS011;60055;41.884;12.534;2022-08-07T01:58:31;8.10;;;3.17;;
33413;SDS011;60055;41.884;12.534;2022-08-07T02:01:03;9.30;;;3.05;;
33413;SDS011;60055;41.884;12.534;2022-08-07T02:03:33;9.38;;;3.03;;
33413;SDS011;60055;41.884;12.534;2022-08-07T02:06:04;8.25;;;3.22;;
33413;SDS011;60055;41.884;12.534;2022-08-07T02:08:34;11.55;;;2.70;;
33413;SDS011;60055;41.884;12.534;2022-08-07T02:11:04;11.25;;;3.25;;
33413;SDS011;60055;41.884;12.534;2022-08-07T02:13:31;11.82;;;3.10;;
33413;SDS011;60055;41.884;12.534;2022-08-07T02:16:05;12.10;;;3.47;;
33413;SDS011;60055;41.884;12.534;2022-08-07T02:18:33;11.43;;;3.20;;
33413;SDS011;60055;41.884;12.534;2022-08-07T02:21:01;7.05;;;2.90;;
33413;SDS011;60055;41.884;12.534;2022-08-07T02:23:30;14.65;;;3.10;;
33413;SDS011;60055;41.884;12.534;2022-08-07T02:25:58;12.77;;;2.95;;
33413;SDS011;60055;41.884;12.534;2022-08-07T02:28:27;8.80;;;2.75;;
33413;SDS011;60055;41.884;12.534;2022-08-07T02:30:54;9.73;;;3.00;;
33413;SDS011;60055;41.884;12.534;2022-08-07T02:33:20;9.55;;;3.40;;
33413;SDS011;60055;41.884;12.534;2022-08-07T02:35:48;9.48;;;3.35;;
33413;SDS011;60055;41.884;12.534;2022-08-07T02:38:16;9.75;;;3.20;;
33413;SDS011;60055;41.884;12.534;2022-08-07T02:40:45;12.77;;;3.47;;
33413;SDS011;60055;41.884;12.534;2022-08-07T02:43:11;10.23;;;3.63;;
33413;SDS011;60055;41.884;12.534;2022-08-07T02:45:39;9.45;;;3.40;;
33413;SDS011;60055;41.884;12.534;2022-08-07T02:48:08;9.57;;;3.40;;
33413;SDS011;60055;41.884;12.534;2022-08-07T02:50:35;8.48;;;3.60;;
33413;SDS011;60055;41.884;12.534;2022-08-07T02:53:08;11.48;;;3.20;;
33413;SDS011;60055;41.884;12.534;2022-08-07T02:55:37;11.55;;;3.78;;
33413;SDS011;60055;41.884;12.534;2022-08-07T02:58:11;10.15;;;3.30;;
33413;SDS011;60055;41.884;12.534;2022-08-07T03:00:39;14.65;;;3.40;;
33413;SDS011;60055;41.884;12.534;2022-08-07T03:03:06;11.07;;;3.95;;
33413;SDS011;60055;41.884;12.534;2022-08-07T03:05:34;12.57;;;5.35;;
33413;SDS011;60055;41.884;12.534;2022-08-07T03:08:01;12.63;;;4.80;;
33413;SDS011;60055;41.884;12.534;2022-08-07T03:10:28;9.18;;;3.63;;
33413;SDS011;60055;41.884;12.534;2022-08-07T03:12:54;14.00;;;3.60;;
33413;SDS011;60055;41.884;12.534;2022-08-07T03:15:20;11.60;;;3.08;;
33413;SDS011;60055;41.884;12.534;2022-08-07T03:17:46;8.45;;;2.92;;
33413;SDS011;60055;41.884;12.534;2022-08-07T03:20:13;9.05;;;2.88;;
33413;SDS011;60055;41.884;12.534;2022-08-07T03:22:40;10.10;;;3.13;;
33413;SDS011;60055;41.884;12.534;2022-08-07T03:25:07;11.63;;;3.00;;
33413;SDS011;60055;41.884;12.534;2022-08-07T03:27:33;8.10;;;2.90;;
33413;SDS011;60055;41.884;12.534;2022-08-07T03:29:59;7.93;;;2.85;;
33413;SDS011;60055;41.884;12.534;2022-08-07T03:32:27;8.75;;;2.75;;
33413;SDS011;60055;41.884;12.534;2022-08-07T03:34:58;9.60;;;2.92;;
33413;SDS011;60055;41.884;12.534;2022-08-07T03:37:26;12.57;;;3.13;;
33413;SDS011;60055;41.884;12.534;2022-08-07T03:39:53;8.18;;;2.83;;
33413;SDS011;60055;41.884;12.534;2022-08-07T03:42:20;9.13;;;2.85;;
33413;SDS011;60055;41.884;12.534;2022-08-07T03:44:46;14.05;;;3.20;;
33413;SDS011;60055;41.884;12.534;2022-08-07T03:47:13;9.18;;;2.88;;
33413;SDS011;60055;41.884;12.534;2022-08-07T03:49:39;9.45;;;2.80;;
33413;SDS011;60055;41.884;12.534;2022-08-07T03:52:06;9.10;;;3.20;;
33413;SDS011;60055;41.884;12.534;2022-08-07T03:54:34;12.68;;;2.97;;
33413;SDS011;60055;41.884;12.534;2022-08-07T03:57:00;10.30;;;3.38;;
33413;SDS011;60055;41.884;12.534;2022-08-07T03:59:26;8.68;;;3.13;;
33413;SDS011;60055;41.884;12.534;2022-08-07T04:01:53;9.55;;;3.10;;
33413;SDS011;60055;41.884;12.534;2022-08-07T04:04:23;12.73;;;3.35;;
33413;SDS011;60055;41.884;12.534;2022-08-07T04:06:50;11.60;;;3.22;;
33413;SDS011;60055;41.884;12.534;2022-08-07T04:09:19;10.10;;;3.30;;
33413;SDS011;60055;41.884;12.534;2022-08-07T04:11:46;10.70;;;3.40;;
33413;SDS011;60055;41.884;12.534;2022-08-07T04:14:14;11.75;;;4.10;;
33413;SDS011;60055;41.884;12.534;2022-08-07T04:16:40;6.82;;;3.28;;
33413;SDS011;60055;41.884;12.534;2022-08-07T04:19:06;8.63;;;3.17;;
33413;SDS011;60055;41.884;12.534;2022-08-07T04:21:32;10.98;;;3.45;;
33413;SDS011;60055;41.884;12.534;2022-08-07T04:23:58;10.45;;;3.78;;
33413;SDS011;60055;41.884;12.534;2022-08-07T04:26:25;9.88;;;3.35;;
33413;SDS011;60055;41.884;12.534;2022-08-07T04:28:50;12.20;;;3.70;;
33413;SDS011;60055;41.884;12.534;2022-08-07T04:31:16;9.10;;;3.50;;
33413;SDS011;60055;41.884;12.534;2022-08-07T04:33:42;11.38;;;3.65;;
33413;SDS011;60055;41.884;12.534;2022-08-07T04:36:10;11.82;;;3.83;;
33413;SDS011;60055;41.884;12.534;2022-08-07T04:38:38;10.68;;;3.58;;
33413;SDS011;60055;41.884;12.534;2022-08-07T04:41:04;8.93;;;3.50;;
33413;SDS011;60055;41.884;12.534;2022-08-07T04:43:35;10.18;;;3.83;;
33413;SDS011;60055;41.884;12.534;2022-08-07T05:02:42;9.35;;;3.72;;
33413;SDS011;60055;41.884;12.534;2022-08-07T05:05:21;12.18;;;4.07;;
33413;SDS011;60055;41.884;12.534;2022-08-07T05:10:50;9.23;;;3.78;;
33413;SDS011;60055;41.884;12.534;2022-08-07T05:13:34;8.80;;;3.75;;
33413;SDS011;60055;41.884;12.534;2022-08-07T05:16:04;7.28;;;3.85;;
33413;SDS011;60055;41.884;12.534;2022-08-07T05:18:34;14.40;;;4.07;;
33413;SDS011;60055;41.884;12.534;2022-08-07T05:21:05;10.20;;;3.95;;
33413;SDS011;60055;41.884;12.534;2022-08-07T05:23:38;12.55;;;4.30;;
33413;SDS011;60055;41.884;12.534;2022-08-07T05:26:04;12.13;;;3.90;;
33413;SDS011;60055;41.884;12.534;2022-08-07T05:28:37;10.80;;;4.00;;
33413;SDS011;60055;41.884;12.534;2022-08-07T05:31:03;14.05;;;4.10;;
33413;SDS011;60055;41.884;12.534;2022-08-07T05:33:30;14.02;;;3.88;;
33413;SDS011;60055;41.884;12.534;2022-08-07T05:35:59;7.80;;;3.90;;
33413;SDS011;60055;41.884;12.534;2022-08-07T05:38:26;10.82;;;4.28;;
33413;SDS011;60055;41.884;12.534;2022-08-07T05:40:53;10.70;;;4.00;;
33413;SDS011;60055;41.884;12.534;2022-08-07T05:43:19;8.75;;;4.13;;
33413;SDS011;60055;41.884;12.534;2022-08-07T05:45:45;8.25;;;3.75;;
33413;SDS011;60055;41.884;12.534;2022-08-07T05:48:12;6.93;;;3.83;;
33413;SDS011;60055;41.884;12.534;2022-08-07T05:50:39;6.32;;;3.92;;
33413;SDS011;60055;41.884;12.534;2022-08-07T05:53:05;8.27;;;3.60;;
33413;SDS011;60055;41.884;12.534;2022-08-07T05:55:32;9.05;;;4.75;;
33413;SDS011;60055;41.884;12.534;2022-08-07T05:57:59;5.82;;;3.78;;
33413;SDS011;60055;41.884;12.534;2022-08-07T06:00:26;8.77;;;3.58;;
33413;SDS011;60055;41.884;12.534;2022-08-07T06:02:54;10.35;;;3.38;;
33413;SDS011;60055;41.884;12.534;2022-08-07T06:05:22;11.50;;;3.63;;
33413;SDS011;60055;41.884;12.534;2022-08-07T06:07:52;9.98;;;3.85;;
33413;SDS011;60055;41.884;12.534;2022-08-07T06:10:19;7.50;;;3.20;;
33413;SDS011;60055;41.884;12.534;2022-08-07T06:12:45;9.70;;;3.05;;
33413;SDS011;60055;41.884;12.534;2022-08-07T06:15:13;9.15;;;3.03;;
33413;SDS011;60055;41.884;12.534;2022-08-07T06:17:40;7.43;;;2.90;;
33413;SDS011;60055;41.884;12.534;2022-08-07T06:20:07;9.32;;;3.00;;
33413;SDS011;60055;41.884;12.534;2022-08-07T06:22:34;5.35;;;3.08;;
33413;SDS011;60055;41.884;12.534;2022-08-07T06:25:01;6.90;;;3.15;;
33413;SDS011;60055;41.884;12.534;2022-08-07T06:27:27;11.05;;;3.80;;
33413;SDS011;60055;41.884;12.534;2022-08-07T06:29:53;13.75;;;3.42;;
33413;SDS011;60055;41.884;12.534;2022-08-07T06:32:19;7.28;;;3.20;;
33413;SDS011;60055;41.884;12.534;2022-08-07T06:34:45;9.10;;;3.75;;
33413;SDS011;60055;41.884;12.534;2022-08-07T06:37:10;8.27;;;3.20;;
33413;SDS011;60055;41.884;12.534;2022-08-07T06:39:36;9.30;;;3.58;;
33413;SDS011;60055;41.884;12.534;2022-08-07T06:42:07;9.90;;;3.53;;
33413;SDS011;60055;41.884;12.534;2022-08-07T06:44:40;10.20;;;3.35;;
33413;SDS011;60055;41.884;12.534;2022-08-07T06:47:07;8.63;;;3.55;;
33413;SDS011;60055;41.884;12.534;2022-08-07T06:49:33;7.30;;;3.10;;
33413;SDS011;60055;41.884;12.534;2022-08-07T06:51:59;8.13;;;3.40;;
33413;SDS011;60055;41.884;12.534;2022-08-07T06:54:27;10.25;;;3.40;;
33413;SDS011;60055;41.884;12.534;2022-08-07T06:56:53;10.38;;;3.25;;
33413;SDS011;60055;41.884;12.534;2022-08-07T06:59:24;8.73;;;3.55;;
33413;SDS011;60055;41.884;12.534;2022-08-07T07:01:53;6.45;;;3.40;;
33413;SDS011;60055;41.884;12.534;2022-08-07T07:04:21;9.95;;;3.30;;
33413;SDS011;60055;41.884;12.534;2022-08-07T07:06:47;7.25;;;3.15;;
33413;SDS011;60055;41.884;12.534;2022-08-07T07:09:20;13.90;;;3.53;;
33413;SDS011;60055;41.884;12.534;2022-08-07T07:14:55;11.02;;;4.00;;
33413;SDS011;60055;41.884;12.534;2022-08-07T07:20:24;13.65;;;3.72;;
33413;SDS011;60055;41.884;12.534;2022-08-07T07:22:54;11.88;;;3.42;;
33413;SDS011;60055;41.884;12.534;2022-08-07T07:25:20;10.60;;;3.47;;
33413;SDS011;60055;41.884;12.534;2022-08-07T07:28:06;12.05;;;3.28;;
33413;SDS011;60055;41.884;12.534;2022-08-07T07:30:39;13.27;;;3.10;;
33413;SDS011;60055;41.884;12.534;2022-08-07T07:33:08;6.95;;;3.88;;
33413;SDS011;60055;41.884;12.534;2022-08-07T07:35:36;10.23;;;3.22;;
33413;SDS011;60055;41.884;12.534;2022-08-07T07:38:03;9.57;;;3.30;;
33413;SDS011;60055;41.884;12.534;2022-08-07T07:40:32;9.27;;;3.50;;
33413;SDS011;60055;41.884;12.534;2022-08-07T07:42:59;8.30;;;3.97;;
33413;SDS011;60055;41.884;12.534;2022-08-07T07:45:28;6.75;;;3.40;;
33413;SDS011;60055;41.884;12.534;2022-08-07T07:47:56;8.82;;;2.90;;
33413;SDS011;60055;41.884;12.534;2022-08-07T07:50:23;9.52;;;4.53;;
33413;SDS011;60055;41.884;12.534;2022-08-07T07:52:50;7.05;;;4.55;;
33413;SDS011;60055;41.884;12.534;2022-08-07T07:55:18;14.30;;;5.20;;
33413;SDS011;60055;41.884;12.534;2022-08-07T07:57:44;10.55;;;3.22;;
33413;SDS011;60055;41.884;12.534;2022-08-07T08:00:12;6.65;;;2.83;;
33413;SDS011;60055;41.884;12.534;2022-08-07T08:02:39;5.50;;;3.42;;
33413;SDS011;60055;41.884;12.534;2022-08-07T08:05:08;14.90;;;6.00;;
33413;SDS011;60055;41.884;12.534;2022-08-07T08:07:34;7.07;;;3.33;;
33413;SDS011;60055;41.884;12.534;2022-08-07T08:10:03;6.55;;;2.92;;
33413;SDS011;60055;41.884;12.534;2022-08-07T08:12:30;5.93;;;2.85;;
33413;SDS011;60055;41.884;12.534;2022-08-07T08:14:58;10.10;;;3.22;;
33413;SDS011;60055;41.884;12.534;2022-08-07T08:17:24;8.27;;;2.90;;
33413;SDS011;60055;41.884;12.534;2022-08-07T08:19:52;8.18;;;3.13;;
33413;SDS011;60055;41.884;12.534;2022-08-07T08:22:20;9.70;;;2.88;;
33413;SDS011;60055;41.884;12.534;2022-08-07T08:25:06;7.65;;;3.05;;
33413;SDS011;60055;41.884;12.534;2022-08-07T08:27:52;10.95;;;2.67;;
33413;SDS011;60055;41.884;12.534;2022-08-07T08:30:19;8.85;;;3.13;;
33413;SDS011;60055;41.884;12.534;2022-08-07T08:32:57;9.02;;;3.30;;
33413;SDS011;60055;41.884;12.534;2022-08-07T08:35:26;9.35;;;3.15;;
33413;SDS011;60055;41.884;12.534;2022-08-07T08:37:59;6.13;;;2.80;;
33413;SDS011;60055;41.884;12.534;2022-08-07T08:40:35;8.30;;;3.47;;
33413;SDS011;60055;41.884;12.534;2022-08-07T08:45:50;9.05;;;2.50;;
33413;SDS011;60055;41.884;12.534;2022-08-07T08:51:51;10.55;;;3.05;;
33413;SDS011;60055;41.884;12.534;2022-08-07T08:53:57;7.50;;;2.22;;
33413;SDS011;60055;41.884;12.534;2022-08-07T08:56:37;6.22;;;2.58;;
33413;SDS011;60055;41.884;12.534;2022-08-07T09:01:53;7.63;;;3.78;;
33413;SDS011;60055;41.884;12.534;2022-08-07T09:10:06;8.45;;;2.95;;
33413;SDS011;60055;41.884;12.534;2022-08-07T09:18:13;5.57;;;2.55;;
33413;SDS011;60055;41.884;12.534;2022-08-07T09:20:53;7.93;;;2.90;;
33413;SDS011;60055;41.884;12.534;2022-08-07T09:24:04;8.82;;;4.55;;
33413;SDS011;60055;41.884;12.534;2022-08-07T09:38:02;6.03;;;2.75;;
33413;SDS011;60055;41.884;12.534;2022-08-07T09:40:41;5.00;;;2.60;;
33413;SDS011;60055;41.884;12.534;2022-08-07T09:54:05;5.55;;;2.28;;
33413;SDS011;60055;41.884;12.534;2022-08-07T09:56:51;10.82;;;2.70;;
33413;SDS011;60055;41.884;12.534;2022-08-07T10:04:57;7.13;;;2.90;;
33413;SDS011;60055;41.884;12.534;2022-08-07T10:07:38;9.20;;;2.97;;
33413;SDS011;60055;41.884;12.534;2022-08-07T10:10:47;8.52;;;2.50;;
33413;SDS011;60055;41.884;12.534;2022-08-07T10:40:12;8.32;;;2.90;;
33413;SDS011;60055;41.884;12.534;2022-08-07T10:48:07;8.00;;;2.80;;
33413;SDS011;60055;41.884;12.534;2022-08-07T10:50:51;11.75;;;4.75;;
33413;SDS011;60055;41.884;12.534;2022-08-07T11:01:34;8.10;;;3.20;;
33413;SDS011;60055;41.884;12.534;2022-08-07T11:07:06;11.95;;;3.13;;
33413;SDS011;60055;41.884;12.534;2022-08-07T11:09:56;8.48;;;2.92;;
33413;SDS011;60055;41.884;12.534;2022-08-07T11:12:27;7.10;;;2.75;;
33413;SDS011;60055;41.884;12.534;2022-08-07T11:15:07;8.18;;;2.97;;
33413;SDS011;60055;41.884;12.534;2022-08-07T11:20:17;7.78;;;2.83;;
33413;SDS011;60055;41.884;12.534;2022-08-07T11:22:58;10.10;;;3.13;;
33413;SDS011;60055;41.884;12.534;2022-08-07T11:25:36;9.95;;;2.90;;
33413;SDS011;60055;41.884;12.534;2022-08-07T11:28:25;10.00;;;2.80;;
33413;SDS011;60055;41.884;12.534;2022-08-07T11:31:02;6.10;;;3.15;;
33413;SDS011;60055;41.884;12.534;2022-08-07T11:36:29;7.13;;;2.60;;
33413;SDS011;60055;41.884;12.534;2022-08-07T11:42:07;7.95;;;2.90;;
33413;SDS011;60055;41.884;12.534;2022-08-07T11:47:40;8.98;;;2.58;;
33413;SDS011;60055;41.884;12.534;2022-08-07T11:53:43;7.70;;;2.65;;
33413;SDS011;60055;41.884;12.534;2022-08-07T12:13:10;5.13;;;2.28;;
33413;SDS011;60055;41.884;12.534;2022-08-07T12:15:54;8.90;;;2.40;;
33413;SDS011;60055;41.884;12.534;2022-08-07T12:18:47;6.18;;;2.40;;
33413;SDS011;60055;41.884;12.534;2022-08-07T12:24:26;7.75;;;2.30;;
33413;SDS011;60055;41.884;12.534;2022-08-07T12:27:09;6.70;;;2.45;;
33413;SDS011;60055;41.884;12.534;2022-08-07T12:29:45;6.53;;;2.35;;
33413;SDS011;60055;41.884;12.534;2022-08-07T12:32:26;7.68;;;2.72;;
33413;SDS011;60055;41.884;12.534;2022-08-07T12:35:01;4.50;;;2.00;;
33413;SDS011;60055;41.884;12.534;2022-08-07T12:37:28;6.70;;;2.30;;
33413;SDS011;60055;41.884;12.534;2022-08-07T12:39:56;6.00;;;2.25;;
33413;SDS011;60055;41.884;12.534;2022-08-07T12:42:25;5.28;;;2.00;;
33413;SDS011;60055;41.884;12.534;2022-08-07T12:44:52;7.07;;;2.10;;
33413;SDS011;60055;41.884;12.534;2022-08-07T12:47:31;5.22;;;2.05;;
33413;SDS011;60055;41.884;12.534;2022-08-07T12:53:00;4.90;;;2.30;;
33413;SDS011;60055;41.884;12.534;2022-08-07T12:58:05;4.82;;;2.08;;
33413;SDS011;60055;41.884;12.534;2022-08-07T13:06:13;4.82;;;2.17;;
33413;SDS011;60055;41.884;12.534;2022-08-07T13:08:54;6.17;;;2.00;;
33413;SDS011;60055;41.884;12.534;2022-08-07T13:17:37;4.68;;;2.00;;
33413;SDS011;60055;41.884;12.534;2022-08-07T13:20:14;7.10;;;2.40;;
33413;SDS011;60055;41.884;12.534;2022-08-07T13:22:46;6.72;;;2.05;;
33413;SDS011;60055;41.884;12.534;2022-08-07T13:25:18;5.65;;;1.77;;
33413;SDS011;60055;41.884;12.534;2022-08-07T13:28:01;5.75;;;2.20;;
33413;SDS011;60055;41.884;12.534;2022-08-07T13:30:53;6.18;;;1.92;;
33413;SDS011;60055;41.884;12.534;2022-08-07T13:36:23;5.32;;;2.15;;
33413;SDS011;60055;41.884;12.534;2022-08-07T13:39:13;8.70;;;2.28;;
33413;SDS011;60055;41.884;12.534;2022-08-07T13:41:49;6.20;;;1.98;;
33413;SDS011;60055;41.884;12.534;2022-08-07T13:44:19;7.10;;;1.90;;
33413;SDS011;60055;41.884;12.534;2022-08-07T13:46:50;5.70;;;2.00;;
33413;SDS011;60055;41.884;12.534;2022-08-07T13:49:21;3.00;;;2.25;;
33413;SDS011;60055;41.884;12.534;2022-08-07T13:51:48;5.07;;;2.08;;
33413;SDS011;60055;41.884;12.534;2022-08-07T13:54:16;4.95;;;1.88;;
33413;SDS011;60055;41.884;12.534;2022-08-07T13:56:43;5.90;;;1.80;;
33413;SDS011;60055;41.884;12.534;2022-08-07T13:59:18;7.07;;;1.92;;
33413;SDS011;60055;41.884;12.534;2022-08-07T14:01:55;8.88;;;2.08;;
33413;SDS011;60055;41.884;12.534;2022-08-07T14:04:42;4.50;;;1.90;;
33413;SDS011;60055;41.884;12.534;2022-08-07T14:07:14;5.03;;;1.95;;
33413;SDS011;60055;41.884;12.534;2022-08-07T14:09:42;7.00;;;2.05;;
33413;SDS011;60055;41.884;12.534;2022-08-07T14:12:10;6.03;;;2.42;;
33413;SDS011;60055;41.884;12.534;2022-08-07T14:14:54;5.38;;;2.00;;
33413;SDS011;60055;41.884;12.534;2022-08-07T14:17:25;7.00;;;1.95;;
33413;SDS011;60055;41.884;12.534;2022-08-07T14:22:31;5.15;;;2.08;;
33413;SDS011;60055;41.884;12.534;2022-08-07T14:24:59;7.43;;;2.15;;
33413;SDS011;60055;41.884;12.534;2022-08-07T14:27:33;5.82;;;1.92;;
33413;SDS011;60055;41.884;12.534;2022-08-07T14:30:05;6.03;;;1.83;;
33413;SDS011;60055;41.884;12.534;2022-08-07T14:33:15;4.78;;;1.75;;
33413;SDS011;60055;41.884;12.534;2022-08-07T14:35:24;5.93;;;1.90;;
33413;SDS011;60055;41.884;12.534;2022-08-07T14:37:54;7.30;;;2.10;;
33413;SDS011;60055;41.884;12.534;2022-08-07T14:40:22;5.40;;;2.20;;
33413;SDS011;60055;41.884;12.534;2022-08-07T14:45:48;6.60;;;1.90;;
33413;SDS011;60055;41.884;12.534;2022-08-07T14:48:19;6.93;;;2.00;;
33413;SDS011;60055;41.884;12.534;2022-08-07T14:50:51;6.38;;;1.90;;
33413;SDS011;60055;41.884;12.534;2022-08-07T14:53:19;4.72;;;2.42;;
33413;SDS011;60055;41.884;12.534;2022-08-07T14:55:50;5.15;;;1.90;;
33413;SDS011;60055;41.884;12.534;2022-08-07T14:58:17;6.50;;;2.38;;
33413;SDS011;60055;41.884;12.534;2022-08-07T15:00:47;8.20;;;2.40;;
33413;SDS011;60055;41.884;12.534;2022-08-07T15:03:21;6.45;;;2.13;;
33413;SDS011;60055;41.884;12.534;2022-08-07T15:05:52;8.48;;;2.17;;
33413;SDS011;60055;41.884;12.534;2022-08-07T15:08:23;9.32;;;2.25;;
33413;SDS011;60055;41.884;12.534;2022-08-07T15:11:10;6.57;;;2.10;;
33413;SDS011;60055;41.884;12.534;2022-08-07T15:13:51;6.22;;;2.10;;
33413;SDS011;60055;41.884;12.534;2022-08-07T15:16:17;9.32;;;2.20;;
33413;SDS011;60055;41.884;12.534;2022-08-07T15:18:46;7.40;;;2.15;;
33413;SDS011;60055;41.884;12.534;2022-08-07T15:21:16;8.63;;;2.60;;
33413;SDS011;60055;41.884;12.534;2022-08-07T15:23:45;6.78;;;2.53;;
33413;SDS011;60055;41.884;12.534;2022-08-07T15:26:13;7.13;;;2.53;;
33413;SDS011;60055;41.884;12.534;2022-08-07T15:28:43;7.00;;;2.50;;
33413;SDS011;60055;41.884;12.534;2022-08-07T15:31:12;7.32;;;2.40;;
33413;SDS011;60055;41.884;12.534;2022-08-07T15:33:40;8.25;;;2.50;;
33413;SDS011;60055;41.884;12.534;2022-08-07T15:36:07;6.95;;;2.50;;
33413;SDS011;60055;41.884;12.534;2022-08-07T15:38:34;5.97;;;2.60;;
33413;SDS011;60055;41.884;12.534;2022-08-07T15:41:07;7.13;;;2.30;;
33413;SDS011;60055;41.884;12.534;2022-08-07T15:43:36;7.55;;;2.50;;
33413;SDS011;60055;41.884;12.534;2022-08-07T15:46:16;9.57;;;2.35;;
33413;SDS011;60055;41.884;12.534;2022-08-07T15:48:45;5.70;;;2.10;;
33413;SDS011;60055;41.884;12.534;2022-08-07T15:51:13;6.47;;;2.58;;
33413;SDS011;60055;41.884;12.534;2022-08-07T15:53:49;6.93;;;2.70;;
33413;SDS011;60055;41.884;12.534;2022-08-07T15:56:18;7.18;;;2.70;;
33413;SDS011;60055;41.884;12.534;2022-08-07T16:01:24;7.00;;;2.50;;
33413;SDS011;60055;41.884;12.534;2022-08-07T16:03:55;5.95;;;2.30;;
33413;SDS011;60055;41.884;12.534;2022-08-07T16:06:26;6.18;;;2.70;;
33413;SDS011;60055;41.884;12.534;2022-08-07T16:09:03;15.05;;;2.70;;
33413;SDS011;60055;41.884;12.534;2022-08-07T16:14:10;21.40;;;4.25;;
33413;SDS011;60055;41.884;12.534;2022-08-07T16:16:48;21.83;;;3.50;;
33413;SDS011;60055;41.884;12.534;2022-08-07T16:23:04;20.85;;;4.38;;
33413;SDS011;60055;41.884;12.534;2022-08-07T16:25:49;11.45;;;4.10;;
33413;SDS011;60055;41.884;12.534;2022-08-07T16:31:24;11.50;;;3.75;;
33413;SDS011;60055;41.884;12.534;2022-08-07T16:37:17;10.52;;;3.85;;
33413;SDS011;60055;41.884;12.534;2022-08-07T16:45:52;11.18;;;3.75;;
33413;SDS011;60055;41.884;12.534;2022-08-07T16:56:50;6.40;;;3.88;;
33413;SDS011;60055;41.884;12.534;2022-08-07T17:02:11;4.63;;;3.72;;
33413;SDS011;60055;41.884;12.534;2022-08-07T17:07:57;14.52;;;6.85;;
33413;SDS011;60055;41.884;12.534;2022-08-07T17:16:02;12.05;;;5.40;;
33413;SDS011;60055;41.884;12.534;2022-08-07T17:19:00;14.98;;;4.78;;
33413;SDS011;60055;41.884;12.534;2022-08-07T17:21:30;8.77;;;4.45;;
33413;SDS011;60055;41.884;12.534;2022-08-07T17:26:59;14.40;;;5.30;;
33413;SDS011;60055;41.884;12.534;2022-08-07T17:32:18;18.00;;;6.43;;
33413;SDS011;60055;41.884;12.534;2022-08-07T17:35:20;15.45;;;6.25;;
33413;SDS011;60055;41.884;12.534;2022-08-07T17:40:37;13.52;;;6.10;;
33413;SDS011;60055;41.884;12.534;2022-08-07T17:43:22;11.00;;;5.68;;
33413;SDS011;60055;41.884;12.534;2022-08-07T17:46:16;13.80;;;5.40;;
33413;SDS011;60055;41.884;12.534;2022-08-07T17:51:34;13.60;;;5.10;;
33413;SDS011;60055;41.884;12.534;2022-08-07T17:54:23;10.10;;;5.35;;
33413;SDS011;60055;41.884;12.534;2022-08-07T17:59:39;10.98;;;4.97;;
33413;SDS011;60055;41.884;12.534;2022-08-07T18:02:13;6.28;;;4.32;;
33413;SDS011;60055;41.884;12.534;2022-08-07T18:08:09;7.72;;;4.78;;
33413;SDS011;60055;41.884;12.534;2022-08-07T18:11:33;11.55;;;5.28;;
33413;SDS011;60055;41.884;12.534;2022-08-07T18:13:54;11.20;;;5.28;;
33413;SDS011;60055;41.884;12.534;2022-08-07T18:16:35;10.38;;;5.35;;
33413;SDS011;60055;41.884;12.534;2022-08-07T18:21:43;10.45;;;6.05;;
33413;SDS011;60055;41.884;12.534;2022-08-07T18:24:36;12.43;;;5.97;;
33413;SDS011;60055;41.884;12.534;2022-08-07T18:30:27;9.32;;;5.30;;
33413;SDS011;60055;41.884;12.534;2022-08-07T18:41:17;7.57;;;4.50;;
33413;SDS011;60055;41.884;12.534;2022-08-07T18:55:18;9.00;;;4.47;;
33413;SDS011;60055;41.884;12.534;2022-08-07T19:00:42;7.90;;;5.80;;
33413;SDS011;60055;41.884;12.534;2022-08-07T19:03:14;10.52;;;4.28;;
33413;SDS011;60055;41.884;12.534;2022-08-07T19:05:50;6.22;;;4.28;;
33413;SDS011;60055;41.884;12.534;2022-08-07T19:08:26;7.18;;;4.50;;
33413;SDS011;60055;41.884;12.534;2022-08-07T19:10:59;10.35;;;4.70;;
33413;SDS011;60055;41.884;12.534;2022-08-07T19:13:46;7.90;;;4.90;;
33413;SDS011;60055;41.884;12.534;2022-08-07T19:21:50;12.05;;;4.47;;
33413;SDS011;60055;41.884;12.534;2022-08-07T19:24:38;7.57;;;4.72;;